createdAt,value
2023-08-17T00:00:32.645Z,18.40
2023-08-17T00:02:59.181Z,18.41
2023-08-17T00:05:25.735Z,18.33
2023-08-17T00:07:53.339Z,18.29
2023-08-17T00:10:20.064Z,18.32
2023-08-17T00:12:46.535Z,18.25
2023-08-17T00:15:13.087Z,18.28
2023-08-17T00:17:39.592Z,18.31
2023-08-17T00:20:07.520Z,18.30
2023-08-17T00:22:34.021Z,18.32
2023-08-17T00:25:00.614Z,18.30
2023-08-17T00:27:27.331Z,18.33
2023-08-17T00:29:54.026Z,18.30
2023-08-17T00:32:21.139Z,18.11
2023-08-17T00:34:47.710Z,18.12
2023-08-17T00:37:14.319Z,18.16
2023-08-17T00:39:40.797Z,18.00
2023-08-17T00:42:09.238Z,17.75
2023-08-17T00:44:35.715Z,17.64
2023-08-17T00:47:03.459Z,17.50
2023-08-17T00:49:30.471Z,17.71
2023-08-17T00:51:57.963Z,17.76
2023-08-17T00:54:27.939Z,17.69
2023-08-17T00:56:57.263Z,17.77
2023-08-17T00:59:26.435Z,17.85
2023-08-17T01:01:53.275Z,17.78
2023-08-17T01:04:19.903Z,17.68
2023-08-17T01:06:46.576Z,17.69
2023-08-17T01:09:13.191Z,17.59
2023-08-17T01:11:50.514Z,17.58
2023-08-17T01:14:33.961Z,17.64
2023-08-17T01:17:13.699Z,17.29
2023-08-17T01:19:40.386Z,17.34
2023-08-17T01:22:09.692Z,17.29
2023-08-17T01:24:36.195Z,17.01
2023-08-17T01:27:02.742Z,16.79
2023-08-17T01:29:29.503Z,16.67
2023-08-17T01:32:13.960Z,16.71
2023-08-17T01:34:51.121Z,16.75
2023-08-17T01:37:21.919Z,16.79
2023-08-17T01:39:51.841Z,16.90
2023-08-17T01:42:19.558Z,16.98
2023-08-17T01:44:46.239Z,17.02
2023-08-17T01:47:15.734Z,17.06
2023-08-17T01:49:42.225Z,17.04
2023-08-17T01:52:08.744Z,17.11
2023-08-17T01:54:35.418Z,17.17
2023-08-17T01:57:01.904Z,17.20
2023-08-17T01:59:28.490Z,17.16
2023-08-17T02:01:55.093Z,17.16
2023-08-17T02:04:21.619Z,17.19
2023-08-17T02:06:48.221Z,17.12
2023-08-17T02:09:14.890Z,17.04
2023-08-17T02:11:41.415Z,17.11
2023-08-17T02:14:08.045Z,17.08
2023-08-17T02:16:35.444Z,17.07
2023-08-17T02:19:02.100Z,16.76
2023-08-17T02:21:28.631Z,16.56
2023-08-17T02:23:55.157Z,16.62
2023-08-17T02:26:23.123Z,16.67
2023-08-17T02:28:50.742Z,16.71
2023-08-17T02:31:17.272Z,16.53
2023-08-17T02:33:43.961Z,16.59
2023-08-17T02:36:10.511Z,16.69
2023-08-17T02:38:37.097Z,16.76
2023-08-17T02:41:03.712Z,16.82
2023-08-17T02:43:30.176Z,16.84
2023-08-17T02:45:56.671Z,16.71
2023-08-17T02:48:24.323Z,16.56
2023-08-17T02:50:50.794Z,16.45
2023-08-17T02:53:17.435Z,16.44
2023-08-17T02:55:44.018Z,16.33
2023-08-17T02:58:10.545Z,16.14
2023-08-17T03:00:37.099Z,16.07
2023-08-17T03:03:04.098Z,15.99
2023-08-17T03:05:31.809Z,15.98
2023-08-17T03:07:58.376Z,15.89
2023-08-17T03:10:26.123Z,15.88
2023-08-17T03:12:52.738Z,15.76
2023-08-17T03:15:20.128Z,15.73
2023-08-17T03:17:46.863Z,15.67
2023-08-17T03:20:13.793Z,15.78
2023-08-17T03:22:40.543Z,15.92
2023-08-17T03:25:07.607Z,15.92
2023-08-17T03:27:34.308Z,15.90
2023-08-17T03:30:01.363Z,15.99
2023-08-17T03:32:28.179Z,16.01
2023-08-17T03:34:54.673Z,16.09
2023-08-17T03:37:23.016Z,16.04
2023-08-17T03:39:49.933Z,15.98
2023-08-17T03:42:16.508Z,15.88
2023-08-17T03:44:43.168Z,15.90
2023-08-17T03:47:09.631Z,15.87
2023-08-17T03:49:36.209Z,15.76
2023-08-17T03:52:02.750Z,15.78
2023-08-17T03:54:29.345Z,15.84
2023-08-17T03:56:55.851Z,15.66
2023-08-17T03:59:22.401Z,15.60
2023-08-17T04:01:48.961Z,15.72
2023-08-17T04:04:15.651Z,15.83
2023-08-17T04:06:42.182Z,15.92
2023-08-17T04:09:08.919Z,15.94
2023-08-17T04:11:38.560Z,15.90
2023-08-17T04:14:06.137Z,15.99
2023-08-17T04:16:34.690Z,16.09
2023-08-17T04:19:01.339Z,16.00
2023-08-17T04:21:30.184Z,16.10
2023-08-17T04:23:56.975Z,16.08
2023-08-17T04:26:24.808Z,16.16
2023-08-17T04:28:52.071Z,16.27
2023-08-17T04:31:18.772Z,16.05
2023-08-17T04:33:49.303Z,16.01
2023-08-17T04:36:15.922Z,15.89
2023-08-17T04:38:42.406Z,15.80
2023-08-17T04:41:09.033Z,15.93
2023-08-17T04:43:36.554Z,15.94
2023-08-17T04:46:03.211Z,15.87
2023-08-17T04:48:30.258Z,15.83
2023-08-17T04:50:57.279Z,15.78
2023-08-17T04:53:23.812Z,15.87
2023-08-17T04:55:51.573Z,15.95
2023-08-17T04:58:18.064Z,16.03
2023-08-17T05:00:44.765Z,16.10
2023-08-17T05:03:20.144Z,16.15
2023-08-17T05:05:53.236Z,16.13
2023-08-17T05:08:20.335Z,16.09
2023-08-17T05:10:46.831Z,16.05
2023-08-17T05:13:13.336Z,16.07
2023-08-17T05:15:40.039Z,15.97
2023-08-17T05:18:09.197Z,16.04
2023-08-17T05:20:36.909Z,16.10
2023-08-17T05:23:04.125Z,16.17
2023-08-17T05:25:30.656Z,16.24
2023-08-17T05:27:57.165Z,16.25
2023-08-17T05:30:24.088Z,16.30
2023-08-17T05:32:51.659Z,16.37
2023-08-17T05:35:18.848Z,16.41
2023-08-17T05:37:45.486Z,16.47
2023-08-17T05:40:12.404Z,16.41
2023-08-17T05:42:38.980Z,16.41
2023-08-17T05:45:06.247Z,16.51
2023-08-17T05:47:32.776Z,16.59
2023-08-17T05:49:59.261Z,16.59
2023-08-17T05:52:25.833Z,16.50
2023-08-17T05:54:52.286Z,16.51
2023-08-17T05:57:18.781Z,16.57
2023-08-17T05:59:45.266Z,16.66
2023-08-17T06:02:11.759Z,16.77
2023-08-17T06:04:38.258Z,16.62
2023-08-17T06:07:04.917Z,16.69
2023-08-17T06:09:31.411Z,16.70
2023-08-17T06:11:57.943Z,16.84
2023-08-17T06:14:24.521Z,16.73
2023-08-17T06:16:51.119Z,16.84
2023-08-17T06:19:17.621Z,17.05
2023-08-17T06:21:44.211Z,17.22
2023-08-17T06:24:10.668Z,17.37
2023-08-17T06:26:37.248Z,17.40
2023-08-17T06:29:04.547Z,17.54
2023-08-17T06:31:31.293Z,17.68
2023-08-17T06:33:58.161Z,17.79
2023-08-17T06:36:24.722Z,17.54
2023-08-17T06:38:51.227Z,17.56
2023-08-17T06:41:18.238Z,17.45
2023-08-17T06:43:44.718Z,17.29
2023-08-17T06:46:11.470Z,17.37
2023-08-17T06:48:38.069Z,17.55
2023-08-17T06:51:05.842Z,17.77
2023-08-17T06:53:32.390Z,17.96
2023-08-17T06:56:01.710Z,17.72
2023-08-17T06:58:29.353Z,17.60
2023-08-17T07:00:56.036Z,17.58
2023-08-17T07:03:22.662Z,17.79
2023-08-17T07:05:49.386Z,17.92
2023-08-17T07:08:15.996Z,17.61
2023-08-17T07:10:42.441Z,17.79
2023-08-17T07:13:09.013Z,17.69
2023-08-17T07:15:35.542Z,17.81
2023-08-17T07:18:02.110Z,17.99
2023-08-17T07:20:28.737Z,17.96
2023-08-17T07:22:55.345Z,18.04
2023-08-17T07:25:21.793Z,18.03
2023-08-17T07:27:48.269Z,17.90
2023-08-17T07:30:14.771Z,17.94
2023-08-17T07:32:41.311Z,17.90
2023-08-17T07:35:08.221Z,17.88
2023-08-17T07:37:35.198Z,17.75
2023-08-17T07:40:04.711Z,17.93
2023-08-17T07:42:31.597Z,18.08
2023-08-17T07:44:58.388Z,18.22
2023-08-17T07:47:24.983Z,18.31
2023-08-17T07:49:51.596Z,18.45
2023-08-17T07:52:18.195Z,18.54
2023-08-17T07:54:46.620Z,18.56
2023-08-17T07:57:13.255Z,18.62
2023-08-17T07:59:39.907Z,18.51
2023-08-17T08:02:06.950Z,18.22
2023-08-17T08:04:33.471Z,18.21
2023-08-17T08:07:00.035Z,18.15
2023-08-17T08:09:26.496Z,18.14
2023-08-17T08:11:53.052Z,18.23
2023-08-17T08:14:19.534Z,18.15
2023-08-17T08:16:46.254Z,18.38
2023-08-17T08:19:12.858Z,18.29
2023-08-17T08:21:39.476Z,18.35
2023-08-17T08:24:10.424Z,18.49
2023-08-17T08:26:40.714Z,18.46
2023-08-17T08:29:07.236Z,18.43
2023-08-17T08:31:33.708Z,18.56
2023-08-17T08:34:00.590Z,18.71
2023-08-17T08:36:27.229Z,18.86
2023-08-17T08:38:53.853Z,19.07
2023-08-17T08:41:20.835Z,19.01
2023-08-17T08:43:47.998Z,18.99
2023-08-17T08:46:17.910Z,18.96
2023-08-17T08:48:48.672Z,19.17
2023-08-17T08:51:21.733Z,19.31
2023-08-17T08:53:56.466Z,19.52
2023-08-17T08:56:25.670Z,19.70
2023-08-17T08:58:54.919Z,19.81
2023-08-17T09:01:22.634Z,19.93
2023-08-17T09:03:49.305Z,19.97
2023-08-17T09:09:03.685Z,20.02
2023-08-17T09:11:31.139Z,20.24
2023-08-17T09:13:57.981Z,20.45
2023-08-17T09:16:25.840Z,20.73
2023-08-17T09:18:55.554Z,20.87
2023-08-17T09:21:25.640Z,20.97
2023-08-17T09:24:00.123Z,21.12
2023-08-17T09:26:32.166Z,21.22
2023-08-17T09:29:00.588Z,21.01
2023-08-17T09:31:27.391Z,21.23
2023-08-17T09:33:54.352Z,21.14
2023-08-17T09:36:24.833Z,20.82
2023-08-17T09:38:54.283Z,21.13
2023-08-17T09:41:21.196Z,21.08
2023-08-17T09:43:48.366Z,21.17
2023-08-17T09:46:15.875Z,21.13
2023-08-17T09:48:45.405Z,21.36
2023-08-17T09:51:15.554Z,21.15
2023-08-17T09:53:42.122Z,20.82
2023-08-17T09:56:09.275Z,20.69
2023-08-17T09:58:35.721Z,20.66
2023-08-17T10:01:05.465Z,20.30
2023-08-17T10:03:35.323Z,20.62
2023-08-17T10:06:11.548Z,20.77
2023-08-17T10:08:44.359Z,20.77
2023-08-17T10:11:15.914Z,20.85
2023-08-17T10:14:01.319Z,21.00
2023-08-17T10:16:34.425Z,21.00
2023-08-17T10:19:14.411Z,21.02
2023-08-17T10:21:55.139Z,21.06
2023-08-17T10:24:21.637Z,21.36
2023-08-17T10:29:23.728Z,21.74
2023-08-17T10:31:50.427Z,21.43
2023-08-17T10:34:17.265Z,21.60
2023-08-17T10:36:45.457Z,21.90
2023-08-17T10:39:26.027Z,22.35
2023-08-17T10:41:55.750Z,22.11
2023-08-17T10:44:48.103Z,21.79
2023-08-17T10:47:28.382Z,21.56
2023-08-17T10:50:06.516Z,21.74
2023-08-17T10:52:35.659Z,21.93
2023-08-17T10:55:06.812Z,22.03
2023-08-17T10:57:41.949Z,22.38
2023-08-17T11:00:20.965Z,22.39
2023-08-17T11:03:01.022Z,22.75
2023-08-17T11:05:42.074Z,22.36
2023-08-17T11:08:21.164Z,22.45
2023-08-17T11:11:13.518Z,22.44
2023-08-17T11:13:45.309Z,22.64
2023-08-17T11:16:18.747Z,22.90
2023-08-17T11:18:46.589Z,23.02
2023-08-17T11:21:19.371Z,23.23
2023-08-17T11:23:46.817Z,23.58
2023-08-17T11:26:16.829Z,23.98
2023-08-17T11:28:45.624Z,24.17
2023-08-17T11:31:14.015Z,24.15
2023-08-17T11:33:41.200Z,24.19
2023-08-17T11:36:11.080Z,24.05
2023-08-17T11:38:44.535Z,24.10
2023-08-17T11:41:18.517Z,24.07
2023-08-17T11:43:48.116Z,23.74
2023-08-17T11:46:16.277Z,23.48
2023-08-17T11:48:42.935Z,22.92
2023-08-17T11:51:09.590Z,22.75
2023-08-17T11:53:38.112Z,22.78
2023-08-17T11:56:08.391Z,22.56
2023-08-17T11:58:47.484Z,22.30
2023-08-17T12:01:16.705Z,22.06
2023-08-17T12:03:44.198Z,21.80
2023-08-17T12:06:11.814Z,21.63
2023-08-17T12:08:38.470Z,21.52
2023-08-17T12:11:05.729Z,21.30
2023-08-17T12:13:35.670Z,21.32
2023-08-17T12:16:04.742Z,21.31
2023-08-17T12:18:35.346Z,21.33
2023-08-17T12:21:02.019Z,21.43
2023-08-17T12:23:29.131Z,21.53
2023-08-17T12:25:56.282Z,21.56
2023-08-17T12:28:26.534Z,21.65
2023-08-17T12:31:01.772Z,21.74
2023-08-17T12:33:28.557Z,21.72
2023-08-17T12:35:56.439Z,21.84
2023-08-17T12:38:26.009Z,21.73
2023-08-17T12:40:52.528Z,21.56
2023-08-17T12:43:19.011Z,21.59
2023-08-17T12:45:45.491Z,21.68
2023-08-17T12:48:12.114Z,21.87
2023-08-17T12:50:43.411Z,22.15
2023-08-17T12:53:10.422Z,22.39
2023-08-17T12:55:36.955Z,22.55
2023-08-17T12:58:03.572Z,22.80
2023-08-17T13:00:30.206Z,23.08
2023-08-17T13:02:56.696Z,23.24
2023-08-17T13:05:23.384Z,23.34
2023-08-17T13:07:49.880Z,23.51
2023-08-17T13:10:16.374Z,22.98
2023-08-17T13:12:42.837Z,22.97
2023-08-17T13:15:09.431Z,22.99
2023-08-17T13:17:35.911Z,22.86
2023-08-17T13:20:04.915Z,22.93
2023-08-17T13:22:32.445Z,22.81
2023-08-17T13:24:58.988Z,22.69
2023-08-17T13:27:25.615Z,22.53
2023-08-17T13:29:52.212Z,22.58
2023-08-17T13:32:18.631Z,22.66
2023-08-17T13:34:45.176Z,22.74
2023-08-17T13:37:11.653Z,22.64
2023-08-17T13:39:38.209Z,22.34
2023-08-17T13:42:04.937Z,22.30
2023-08-17T13:44:31.559Z,22.28
2023-08-17T13:46:58.013Z,22.38
2023-08-17T13:49:24.766Z,22.42
2023-08-17T13:51:51.293Z,22.55
2023-08-17T13:54:18.362Z,22.51
2023-08-17T13:56:44.843Z,22.67
2023-08-17T13:59:11.461Z,22.72
2023-08-17T14:01:37.955Z,22.75
2023-08-17T14:04:05.975Z,22.82
2023-08-17T14:06:33.575Z,22.79
2023-08-17T14:09:00.193Z,22.85
2023-08-17T14:11:26.663Z,22.85
2023-08-17T14:13:53.164Z,22.99
2023-08-17T14:16:19.721Z,22.90
2023-08-17T14:18:46.241Z,22.92
2023-08-17T14:21:12.676Z,22.86
2023-08-17T14:23:39.961Z,22.72
2023-08-17T14:26:06.474Z,22.76
2023-08-17T14:28:33.192Z,22.93
2023-08-17T14:30:59.734Z,22.96
2023-08-17T14:33:26.202Z,23.10
2023-08-17T14:35:52.780Z,23.22
2023-08-17T14:38:19.278Z,23.47
2023-08-17T14:40:49.073Z,23.76
2023-08-17T14:43:16.413Z,23.96
2023-08-17T14:45:44.357Z,23.95
2023-08-17T14:48:11.237Z,23.83
2023-08-17T14:50:38.378Z,23.67
2023-08-17T14:53:08.749Z,23.76
2023-08-17T14:55:35.813Z,23.88
2023-08-17T14:58:04.138Z,23.97
2023-08-17T15:00:33.753Z,23.96
2023-08-17T15:03:01.413Z,24.18
2023-08-17T15:05:29.610Z,24.40
2023-08-17T15:07:56.569Z,24.59
2023-08-17T15:10:23.377Z,24.72
2023-08-17T15:12:50.115Z,24.80
2023-08-17T15:15:20.641Z,24.91
2023-08-17T15:17:47.610Z,24.77
2023-08-17T15:20:14.438Z,24.55
2023-08-17T15:22:41.040Z,24.43
2023-08-17T15:25:07.850Z,24.38
2023-08-17T15:27:34.384Z,24.20
2023-08-17T15:30:00.981Z,23.95
2023-08-17T15:32:27.751Z,23.93
2023-08-17T15:34:56.896Z,23.97
2023-08-17T15:37:26.599Z,23.94
2023-08-17T15:39:53.618Z,24.14
2023-08-17T15:42:20.077Z,24.24
2023-08-17T15:44:46.596Z,24.20
2023-08-17T15:47:13.057Z,24.24
2023-08-17T15:49:39.632Z,24.21
2023-08-17T15:52:07.276Z,24.20
2023-08-17T15:54:36.755Z,24.07
2023-08-17T15:57:05.438Z,24.04
2023-08-17T15:59:32.108Z,24.11
2023-08-17T16:01:58.685Z,23.97
2023-08-17T16:04:25.157Z,24.14
2023-08-17T16:06:51.750Z,24.28
2023-08-17T16:09:18.409Z,24.31
2023-08-17T16:11:44.899Z,24.41
2023-08-17T16:14:11.552Z,24.26
2023-08-17T16:16:38.072Z,24.36
2023-08-17T16:19:05.720Z,24.45
2023-08-17T16:21:32.470Z,24.58
2023-08-17T16:23:58.948Z,24.42
2023-08-17T16:26:25.447Z,24.47
2023-08-17T16:28:53.375Z,24.48
2023-08-17T16:31:20.193Z,24.58
2023-08-17T16:33:47.066Z,24.69
2023-08-17T16:36:14.785Z,24.66
2023-08-17T16:38:41.333Z,24.63
2023-08-17T16:41:08.851Z,24.52
2023-08-17T16:43:36.405Z,24.49
2023-08-17T16:46:03.028Z,24.38
2023-08-17T16:48:29.569Z,24.11
2023-08-17T16:50:56.147Z,24.03
2023-08-17T16:53:22.631Z,23.98
2023-08-17T16:55:55.079Z,23.83
2023-08-17T16:58:22.241Z,23.84
2023-08-17T17:00:49.934Z,23.57
2023-08-17T17:03:16.433Z,23.47
2023-08-17T17:05:42.952Z,23.40
2023-08-17T17:08:09.550Z,23.42
2023-08-17T17:10:36.312Z,23.33
2023-08-17T17:13:02.850Z,23.22
2023-08-17T17:15:29.432Z,23.23
2023-08-17T17:17:55.992Z,23.01
2023-08-17T17:20:22.472Z,23.04
2023-08-17T17:22:49.136Z,22.99
2023-08-17T17:25:15.684Z,22.96
2023-08-17T17:27:42.167Z,22.96
2023-08-17T17:30:09.174Z,22.97
2023-08-17T17:32:35.704Z,22.96
2023-08-17T17:35:02.254Z,22.93
2023-08-17T17:37:29.161Z,22.80
2023-08-17T17:39:56.438Z,22.82
2023-08-17T17:42:23.221Z,22.78
2023-08-17T17:44:49.746Z,22.77
2023-08-17T17:47:16.282Z,22.60
2023-08-17T17:49:42.815Z,22.66
2023-08-17T17:52:09.303Z,22.65
2023-08-17T17:54:38.400Z,22.55
2023-08-17T17:57:05.474Z,22.55
2023-08-17T17:59:32.059Z,22.43
2023-08-17T18:01:58.712Z,22.50
2023-08-17T18:04:26.061Z,22.60
2023-08-17T18:06:52.608Z,22.69
2023-08-17T18:09:19.177Z,22.73
2023-08-17T18:11:45.679Z,22.73
2023-08-17T18:14:12.179Z,22.59
2023-08-17T18:16:38.667Z,22.57
2023-08-17T18:19:07.226Z,22.56
2023-08-17T18:21:33.717Z,22.66
2023-08-17T18:24:00.519Z,22.66
2023-08-17T18:26:27.972Z,22.60
2023-08-17T18:28:56.587Z,22.69
2023-08-17T18:31:23.181Z,22.73
2023-08-17T18:33:49.742Z,22.76
2023-08-17T18:36:16.706Z,22.80
2023-08-17T18:38:43.295Z,22.81
2023-08-17T18:41:10.673Z,22.75
2023-08-17T18:43:37.690Z,22.82
2023-08-17T18:46:04.900Z,22.85
2023-08-17T18:48:32.093Z,22.66
2023-08-17T18:50:58.843Z,22.65
2023-08-17T18:53:25.635Z,22.37
2023-08-17T18:55:52.325Z,22.28
2023-08-17T18:58:19.799Z,22.35
2023-08-17T19:00:46.534Z,22.33
2023-08-17T19:03:13.149Z,21.92
2023-08-17T19:05:40.466Z,21.87
2023-08-17T19:08:07.131Z,21.93
2023-08-17T19:10:33.687Z,21.89
2023-08-17T19:13:00.329Z,21.66
2023-08-17T19:15:27.017Z,21.50
2023-08-17T19:17:53.541Z,21.36
2023-08-17T19:20:21.217Z,21.31
2023-08-17T19:22:47.815Z,21.20
2023-08-17T19:25:14.480Z,21.20
2023-08-17T19:27:41.452Z,21.17
2023-08-17T19:30:11.509Z,21.01
2023-08-17T19:32:43.921Z,21.01
2023-08-17T19:35:10.950Z,20.94
2023-08-17T19:37:38.291Z,21.02
2023-08-17T19:40:05.505Z,21.05
2023-08-17T19:42:32.105Z,21.02
2023-08-17T19:44:58.857Z,21.12
2023-08-17T19:47:25.469Z,21.12
2023-08-17T19:49:52.193Z,21.09
2023-08-17T19:52:20.977Z,21.13
2023-08-17T19:54:52.716Z,21.14
2023-08-17T19:57:22.021Z,21.00
2023-08-17T19:59:48.832Z,21.08
2023-08-17T20:02:15.418Z,21.13
2023-08-17T20:04:42.121Z,21.13
2023-08-17T20:07:08.737Z,21.06
2023-08-17T20:09:35.277Z,20.92
2023-08-17T20:12:02.598Z,21.03
2023-08-17T20:14:30.255Z,20.96
2023-08-17T20:16:57.012Z,20.97
2023-08-17T20:19:23.597Z,20.99
2023-08-17T20:21:50.146Z,20.99
2023-08-17T20:24:16.717Z,20.91
2023-08-17T20:26:43.347Z,20.87
2023-08-17T20:29:12.188Z,20.85
2023-08-17T20:31:39.477Z,20.89
2023-08-17T20:34:06.114Z,20.83
2023-08-17T20:36:32.748Z,20.86
2023-08-17T20:39:07.777Z,20.88
2023-08-17T20:41:34.329Z,20.79
2023-08-17T20:44:00.816Z,20.80
2023-08-17T20:46:28.822Z,20.74
2023-08-17T20:48:58.693Z,20.65
2023-08-17T20:51:26.780Z,20.74
2023-08-17T20:53:54.235Z,20.69
2023-08-17T20:56:21.783Z,20.62
2023-08-17T20:58:48.562Z,20.55
2023-08-17T21:01:17.324Z,20.57
2023-08-17T21:03:44.451Z,20.57
2023-08-17T21:06:11.185Z,20.55
2023-08-17T21:08:37.848Z,20.57
2023-08-17T21:11:05.796Z,20.46
2023-08-17T21:13:36.303Z,20.41
2023-08-17T21:16:12.181Z,20.47
2023-08-17T21:18:38.768Z,20.43
2023-08-17T21:21:05.261Z,20.41
2023-08-17T21:23:32.246Z,20.40
2023-08-17T21:26:02.161Z,20.43
2023-08-17T21:28:29.794Z,20.45
2023-08-17T21:31:03.857Z,20.36
2023-08-17T21:33:31.104Z,20.34
2023-08-17T21:35:58.913Z,20.25
2023-08-17T21:38:25.867Z,19.97
2023-08-17T21:40:59.683Z,20.03
2023-08-17T21:43:26.859Z,19.85
2023-08-17T21:45:57.589Z,19.63
2023-08-17T21:48:24.340Z,19.63
2023-08-17T21:50:51.130Z,19.80
2023-08-17T21:53:21.283Z,19.84
2023-08-17T21:55:49.090Z,19.61
2023-08-17T21:58:16.101Z,19.59
2023-08-17T22:00:43.442Z,19.72
2023-08-17T22:03:11.218Z,19.75
2023-08-17T22:05:38.275Z,19.61
2023-08-17T22:08:05.409Z,19.61
2023-08-17T22:10:32.223Z,19.57
2023-08-17T22:12:59.764Z,19.49
2023-08-17T22:15:26.575Z,19.59
2023-08-17T22:17:53.172Z,19.54
2023-08-17T22:20:19.995Z,19.60
2023-08-17T22:22:46.768Z,19.53
2023-08-17T22:25:13.285Z,19.48
2023-08-17T22:27:40.061Z,19.49
2023-08-17T22:30:07.193Z,19.40
2023-08-17T22:32:33.768Z,19.33
2023-08-17T22:35:00.394Z,19.37
2023-08-17T22:37:27.112Z,19.36
2023-08-17T22:39:53.854Z,19.18
2023-08-17T22:42:20.375Z,19.32
2023-08-17T22:44:48.067Z,19.33
2023-08-17T22:47:14.592Z,19.28
2023-08-17T22:49:41.087Z,19.32
2023-08-17T22:52:07.582Z,19.27
2023-08-17T22:54:34.224Z,19.16
2023-08-17T22:57:03.081Z,19.17
2023-08-17T22:59:29.594Z,19.09
2023-08-17T23:01:56.212Z,18.89
2023-08-17T23:04:22.784Z,18.82
2023-08-17T23:06:49.613Z,18.91
2023-08-17T23:09:16.106Z,18.67
2023-08-17T23:11:42.746Z,18.55
2023-08-17T23:14:09.198Z,18.55
2023-08-17T23:16:35.710Z,18.48
2023-08-17T23:19:02.234Z,18.56
2023-08-17T23:21:28.708Z,18.68
2023-08-17T23:23:55.194Z,18.71
2023-08-17T23:26:22.441Z,18.72
2023-08-17T23:28:49.041Z,18.58
2023-08-17T23:31:15.644Z,18.61
2023-08-17T23:33:42.128Z,18.53
2023-08-17T23:36:08.724Z,18.36
2023-08-17T23:38:35.235Z,18.29
2023-08-17T23:41:01.868Z,18.44
2023-08-17T23:43:28.338Z,18.45
2023-08-17T23:45:54.873Z,18.53
2023-08-17T23:48:21.395Z,18.48
2023-08-17T23:50:47.928Z,18.45
2023-08-17T23:53:14.448Z,18.41
2023-08-17T23:55:40.992Z,18.41
2023-08-17T23:58:07.454Z,18.45
